createdAt,value
2018-03-03T00:01:02.462Z,-8.22
2018-03-03T00:02:07.385Z,-8.25
2018-03-03T00:03:12.288Z,-8.11
2018-03-03T00:04:17.002Z,-8.13
2018-03-03T00:05:21.901Z,-8.21
2018-03-03T00:06:27.698Z,-8.08
2018-03-03T00:07:32.565Z,-8.13
2018-03-03T00:08:37.586Z,-8.18
2018-03-03T00:09:42.365Z,-8.27
2018-03-03T00:10:47.506Z,-8.17
2018-03-03T00:11:52.283Z,-8.23
2018-03-03T00:12:57.119Z,-8.33
2018-03-03T00:14:02.141Z,-8.30
2018-03-03T00:15:07.778Z,-8.19
2018-03-03T00:16:12.708Z,-8.12
2018-03-03T00:17:17.854Z,-8.11
2018-03-03T00:18:23.675Z,-8.18
2018-03-03T00:19:28.462Z,-8.26
2018-03-03T00:20:33.413Z,-8.27
2018-03-03T00:21:39.130Z,-8.25
2018-03-03T00:22:44.345Z,-8.24
2018-03-03T00:23:50.667Z,-8.24
2018-03-03T00:24:55.745Z,-8.22
2018-03-03T00:26:00.698Z,-8.18
2018-03-03T00:27:05.610Z,-8.24
2018-03-03T00:28:10.555Z,-8.39
2018-03-03T00:29:15.794Z,-8.39
2018-03-03T00:30:20.767Z,-8.35
2018-03-03T00:31:26.431Z,-8.47
2018-03-03T00:32:31.385Z,-8.47
2018-03-03T00:33:37.888Z,-8.41
2018-03-03T00:34:42.929Z,-8.33
2018-03-03T00:35:48.048Z,-8.24
2018-03-03T00:36:52.969Z,-8.33
2018-03-03T00:37:57.971Z,-8.44
2018-03-03T00:39:02.968Z,-8.39
2018-03-03T00:40:07.959Z,-8.45
2018-03-03T00:41:13.064Z,-8.46
2018-03-03T00:42:18.447Z,-8.46
2018-03-03T00:43:23.297Z,-8.42
2018-03-03T00:44:28.146Z,-8.33
2018-03-03T00:45:33.220Z,-8.32
2018-03-03T00:46:38.939Z,-8.40
2018-03-03T00:47:44.226Z,-8.49
2018-03-03T00:48:49.180Z,-8.47
2018-03-03T00:49:54.019Z,-8.44
2018-03-03T00:50:58.971Z,-8.46
2018-03-03T00:52:04.140Z,-8.39
2018-03-03T00:53:09.387Z,-8.42
2018-03-03T00:54:15.306Z,-8.53
2018-03-03T00:55:20.687Z,-8.45
2018-03-03T00:56:25.644Z,-8.37
2018-03-03T00:57:30.695Z,-8.42
2018-03-03T00:58:36.625Z,-8.35
2018-03-03T00:59:41.922Z,-8.47
2018-03-03T01:00:47.555Z,-8.47
2018-03-03T01:01:53.016Z,-8.42
2018-03-03T01:02:58.271Z,-8.38
2018-03-03T01:04:03.241Z,-8.39
2018-03-03T01:05:08.477Z,-8.47
2018-03-03T01:06:13.725Z,-8.45
2018-03-03T01:07:18.756Z,-8.44
2018-03-03T01:08:24.055Z,-8.50
2018-03-03T01:09:29.120Z,-8.50
2018-03-03T01:10:34.134Z,-8.51
2018-03-03T01:11:40.364Z,-8.42
2018-03-03T01:12:45.565Z,-8.48
2018-03-03T01:13:50.526Z,-8.41
2018-03-03T01:14:56.166Z,-8.52
2018-03-03T01:16:02.519Z,-8.44
2018-03-03T01:17:07.770Z,-8.36
2018-03-03T01:18:13.053Z,-8.35
2018-03-03T01:19:18.106Z,-8.34
2018-03-03T01:20:23.249Z,-8.45
2018-03-03T01:21:28.467Z,-8.39
2018-03-03T01:22:33.664Z,-8.40
2018-03-03T01:23:38.718Z,-8.43
2018-03-03T01:24:43.540Z,-8.38
2018-03-03T01:25:48.782Z,-8.49
2018-03-03T01:26:53.838Z,-8.56
2018-03-03T01:27:59.471Z,-8.54
2018-03-03T01:29:04.795Z,-8.45
2018-03-03T01:30:12.660Z,-8.49
2018-03-03T01:31:17.973Z,-8.41
2018-03-03T01:32:23.175Z,-8.44
2018-03-03T01:33:29.034Z,-8.50
2018-03-03T01:34:34.557Z,-8.57
2018-03-03T01:35:39.555Z,-8.47
2018-03-03T01:36:44.723Z,-8.40
2018-03-03T01:37:49.979Z,-8.44
2018-03-03T01:38:55.230Z,-8.38
2018-03-03T01:40:00.442Z,-8.44
2018-03-03T01:41:06.112Z,-8.40
2018-03-03T01:42:11.383Z,-8.45
2018-03-03T01:43:16.659Z,-8.50
2018-03-03T01:44:22.062Z,-8.41
2018-03-03T01:45:28.806Z,-8.42
2018-03-03T01:46:34.653Z,-8.33
2018-03-03T01:47:40.227Z,-8.34
2018-03-03T01:48:45.567Z,-8.36
2018-03-03T01:49:50.961Z,-8.35
2018-03-03T01:50:56.278Z,-8.53
2018-03-03T01:52:01.325Z,-8.49
2018-03-03T01:53:06.636Z,-8.48
2018-03-03T01:54:11.999Z,-8.43
2018-03-03T01:55:17.312Z,-8.42
2018-03-03T01:56:22.537Z,-8.42
2018-03-03T01:57:27.727Z,-8.39
2018-03-03T01:58:32.943Z,-8.42
2018-03-03T01:59:37.843Z,-8.43
2018-03-03T02:00:44.278Z,-8.45
2018-03-03T02:01:49.482Z,-8.40
2018-03-03T02:02:54.828Z,-8.43
2018-03-03T02:04:00.391Z,-8.43
2018-03-03T02:05:05.761Z,-8.46
2018-03-03T02:06:11.266Z,-8.43
2018-03-03T02:07:16.531Z,-8.50
2018-03-03T02:08:21.734Z,-8.53
2018-03-03T02:09:27.754Z,-8.46
2018-03-03T02:10:33.158Z,-8.57
2018-03-03T02:11:38.597Z,-8.58
2018-03-03T02:12:44.550Z,-8.60
2018-03-03T02:13:49.750Z,-8.47
2018-03-03T02:14:55.187Z,-8.48
2018-03-03T02:16:01.048Z,-8.44
2018-03-03T02:17:06.508Z,-8.48
2018-03-03T02:18:11.647Z,-8.48
2018-03-03T02:19:17.418Z,-8.34
2018-03-03T02:20:22.709Z,-8.42
2018-03-03T02:21:28.075Z,-8.48
2018-03-03T02:22:33.897Z,-8.53
2018-03-03T02:23:39.211Z,-8.46
2018-03-03T02:24:44.970Z,-8.54
2018-03-03T02:25:50.359Z,-8.65
2018-03-03T02:26:55.568Z,-8.62
2018-03-03T02:28:00.826Z,-8.64
2018-03-03T02:29:05.672Z,-8.58
2018-03-03T02:30:15.288Z,-8.61
2018-03-03T02:31:20.519Z,-8.67
2018-03-03T02:32:25.659Z,-8.65
2018-03-03T02:33:30.629Z,-8.53
2018-03-03T02:34:35.860Z,-8.51
2018-03-03T02:35:41.002Z,-8.51
2018-03-03T02:36:46.882Z,-8.50
2018-03-03T02:37:52.177Z,-8.53
2018-03-03T02:38:57.641Z,-8.41
2018-03-03T02:40:02.895Z,-8.38
2018-03-03T02:41:08.074Z,-8.48
2018-03-03T02:42:13.049Z,-8.44
2018-03-03T02:43:18.976Z,-8.48
2018-03-03T02:44:23.618Z,-8.41
2018-03-03T02:45:28.961Z,-8.52
2018-03-03T02:46:34.273Z,-8.51
2018-03-03T02:47:39.480Z,-8.62
2018-03-03T02:48:44.751Z,-8.53
2018-03-03T02:49:50.240Z,-8.47
2018-03-03T02:50:55.302Z,-8.58
2018-03-03T02:52:00.699Z,-8.58
2018-03-03T02:53:05.727Z,-8.69
2018-03-03T02:54:10.989Z,-8.76
2018-03-03T02:55:16.153Z,-8.57
2018-03-03T02:56:21.109Z,-8.59
2018-03-03T02:57:27.289Z,-8.57
2018-03-03T02:58:32.541Z,-8.53
2018-03-03T02:59:37.841Z,-8.52
2018-03-03T03:00:42.935Z,-8.52
2018-03-03T03:01:50.375Z,-8.71
2018-03-03T03:02:55.739Z,-8.76
2018-03-03T03:04:00.836Z,-8.75
2018-03-03T03:05:05.818Z,-8.76
2018-03-03T03:06:10.871Z,-8.70
2018-03-03T03:07:15.763Z,-8.74
2018-03-03T03:08:20.935Z,-8.70
2018-03-03T03:09:25.642Z,-8.56
2018-03-03T03:10:31.423Z,-8.62
2018-03-03T03:11:36.595Z,-8.58
2018-03-03T03:12:41.201Z,-8.60
2018-03-03T03:13:47.173Z,-8.65
2018-03-03T03:14:52.845Z,-8.61
2018-03-03T03:15:58.116Z,-8.59
2018-03-03T03:17:03.208Z,-8.66
2018-03-03T03:18:08.198Z,-8.76
2018-03-03T03:19:13.239Z,-8.71
2018-03-03T03:20:18.681Z,-8.78
2018-03-03T03:21:24.279Z,-8.66
2018-03-03T03:22:30.981Z,-8.68
2018-03-03T03:23:37.753Z,-8.73
2018-03-03T03:24:42.902Z,-8.74
2018-03-03T03:25:48.742Z,-8.80
2018-03-03T03:26:54.052Z,-8.67
2018-03-03T03:27:59.713Z,-8.75
2018-03-03T03:29:04.695Z,-8.89
2018-03-03T03:30:10.568Z,-8.88
2018-03-03T03:31:17.505Z,-8.84
2018-03-03T03:32:23.150Z,-8.80
2018-03-03T03:33:28.358Z,-8.80
2018-03-03T03:34:33.682Z,-8.84
2018-03-03T03:35:38.843Z,-8.82
2018-03-03T03:36:43.726Z,-8.88
2018-03-03T03:37:49.130Z,-8.81
2018-03-03T03:38:54.220Z,-8.81
2018-03-03T03:39:59.288Z,-8.86
2018-03-03T03:41:04.460Z,-8.89
2018-03-03T03:42:09.064Z,-8.97
2018-03-03T03:43:14.200Z,-9.03
2018-03-03T03:44:18.977Z,-9.00
2018-03-03T03:45:24.079Z,-8.93
2018-03-03T03:46:29.514Z,-8.97
2018-03-03T03:47:34.413Z,-8.85
2018-03-03T03:48:39.162Z,-8.82
2018-03-03T03:49:44.039Z,-8.74
2018-03-03T03:50:48.834Z,-8.80
2018-03-03T03:51:54.056Z,-8.91
2018-03-03T03:53:00.587Z,-8.89
2018-03-03T03:54:05.450Z,-8.89
2018-03-03T03:55:09.805Z,-8.91
2018-03-03T03:56:15.019Z,-8.86
2018-03-03T03:57:19.748Z,-8.85
2018-03-03T03:58:25.079Z,-8.80
2018-03-03T03:59:30.917Z,-8.88
2018-03-03T04:00:35.979Z,-8.94
2018-03-03T04:01:40.881Z,-8.85
2018-03-03T04:02:45.662Z,-8.78
2018-03-03T04:03:51.399Z,-8.73
2018-03-03T04:04:56.415Z,-8.80
2018-03-03T04:06:01.061Z,-8.79
2018-03-03T04:07:05.775Z,-8.88
2018-03-03T04:08:10.604Z,-8.97
2018-03-03T04:09:15.639Z,-8.99
2018-03-03T04:10:20.506Z,-8.97
2018-03-03T04:11:25.357Z,-8.96
2018-03-03T04:15:23.503Z,-8.91
2018-03-03T04:16:29.809Z,-9.02
2018-03-03T04:17:35.694Z,-8.91
2018-03-03T04:18:42.021Z,-8.99
2018-03-03T04:19:48.378Z,-9.02
2018-03-03T04:20:56.431Z,-9.03
2018-03-03T04:22:01.821Z,-9.06
2018-03-03T04:23:08.284Z,-9.04
2018-03-03T04:24:13.482Z,-8.95
2018-03-03T04:25:19.553Z,-8.96
2018-03-03T04:26:25.124Z,-8.98
2018-03-03T04:27:31.304Z,-8.93
2018-03-03T04:28:37.088Z,-8.91
2018-03-03T04:29:41.545Z,-8.97
2018-03-03T04:30:48.587Z,-9.09
2018-03-03T04:31:53.243Z,-9.12
2018-03-03T04:32:58.922Z,-9.11
2018-03-03T04:34:04.020Z,-9.04
2018-03-03T04:35:10.146Z,-8.98
2018-03-03T04:36:16.260Z,-9.05
2018-03-03T04:37:22.246Z,-9.05
2018-03-03T04:38:29.499Z,-9.10
2018-03-03T04:39:35.530Z,-9.13
2018-03-03T04:40:41.443Z,-9.09
2018-03-03T04:41:59.031Z,-9.13
2018-03-03T04:43:04.983Z,-9.15
2018-03-03T04:44:11.121Z,-9.18
2018-03-03T04:45:18.802Z,-8.97
2018-03-03T04:46:24.040Z,-8.92
2018-03-03T04:47:36.055Z,-8.89
2018-03-03T04:48:41.964Z,-9.05
2018-03-03T04:49:49.187Z,-9.01
2018-03-03T04:50:56.986Z,-8.99
2018-03-03T04:52:02.708Z,-8.95
2018-03-03T04:53:08.481Z,-8.93
2018-03-03T04:54:14.265Z,-8.99
2018-03-03T04:55:20.287Z,-8.99
2018-03-03T04:56:25.742Z,-9.00
2018-03-03T04:57:31.192Z,-9.03
2018-03-03T04:58:37.172Z,-9.01
2018-03-03T04:59:43.470Z,-9.07
2018-03-03T05:00:50.448Z,-9.14
2018-03-03T05:01:56.971Z,-9.17
2018-03-03T05:03:03.080Z,-9.30
2018-03-03T05:04:08.776Z,-9.29
2018-03-03T05:05:14.990Z,-9.26
2018-03-03T05:06:21.260Z,-9.11
2018-03-03T05:07:27.739Z,-9.12
2018-03-03T05:08:33.301Z,-9.14
2018-03-03T05:09:38.936Z,-9.16
2018-03-03T05:10:44.269Z,-9.13
2018-03-03T05:11:50.012Z,-9.11
2018-03-03T05:12:56.423Z,-9.05
2018-03-03T05:14:02.653Z,-9.14
2018-03-03T05:15:09.621Z,-9.25
2018-03-03T05:16:16.572Z,-9.13
2018-03-03T05:17:23.094Z,-9.20
2018-03-03T05:18:29.609Z,-9.25
2018-03-03T05:19:35.499Z,-9.24
2018-03-03T05:20:42.171Z,-9.24
2018-03-03T05:21:49.207Z,-9.22
2018-03-03T05:22:56.111Z,-9.26
2018-03-03T05:24:02.703Z,-9.19
2018-03-03T05:25:08.568Z,-9.28
2018-03-03T05:26:15.581Z,-9.21
2018-03-03T05:27:22.232Z,-9.21
2018-03-03T05:28:43.608Z,-9.18
2018-03-03T05:29:50.115Z,-9.19
2018-03-03T05:30:59.162Z,-9.21
2018-03-03T05:32:05.949Z,-9.21
2018-03-03T05:33:15.374Z,-9.14
2018-03-03T05:34:21.937Z,-9.13
2018-03-03T05:35:27.563Z,-9.19
2018-03-03T05:36:35.377Z,-9.26
2018-03-03T05:37:42.222Z,-9.28
2018-03-03T05:38:48.891Z,-9.23
2018-03-03T05:39:55.835Z,-9.24
2018-03-03T05:41:03.814Z,-9.20
2018-03-03T05:42:09.683Z,-9.15
2018-03-03T05:43:15.356Z,-9.21
2018-03-03T05:44:22.811Z,-9.27
2018-03-03T05:45:29.764Z,-9.37
2018-03-03T05:46:36.604Z,-9.31
2018-03-03T05:47:42.730Z,-9.21
2018-03-03T05:48:49.215Z,-9.23
2018-03-03T05:49:55.997Z,-9.19
2018-03-03T05:51:01.554Z,-9.19
2018-03-03T05:52:07.335Z,-9.14
2018-03-03T05:53:13.819Z,-9.22
2018-03-03T05:54:19.765Z,-9.22
2018-03-03T05:55:25.969Z,-9.20
2018-03-03T05:56:31.268Z,-9.19
2018-03-03T05:57:38.329Z,-9.25
2018-03-03T05:58:44.583Z,-9.25
2018-03-03T05:59:50.973Z,-9.29
2018-03-03T06:00:59.067Z,-9.26
2018-03-03T06:02:05.032Z,-9.26
2018-03-03T06:03:11.772Z,-9.31
2018-03-03T06:04:17.361Z,-9.37
2018-03-03T06:05:25.642Z,-9.38
2018-03-03T06:06:33.115Z,-9.30
2018-03-03T06:07:38.279Z,-9.32
2018-03-03T06:08:44.160Z,-9.31
2018-03-03T06:09:51.235Z,-9.36
2018-03-03T06:10:57.392Z,-9.33
2018-03-03T06:12:03.236Z,-9.29
2018-03-03T06:13:09.435Z,-9.34
2018-03-03T06:14:14.841Z,-9.31
2018-03-03T06:15:21.597Z,-9.31
2018-03-03T06:16:27.379Z,-9.28
2018-03-03T06:17:40.368Z,-9.42
2018-03-03T06:18:45.853Z,-9.37
2018-03-03T06:19:51.815Z,-9.42
2018-03-03T06:20:58.661Z,-9.36
2018-03-03T06:22:04.904Z,-9.37
2018-03-03T06:23:12.161Z,-9.35
2018-03-03T06:24:17.901Z,-9.19
2018-03-03T06:25:23.689Z,-9.24
2018-03-03T06:26:29.958Z,-9.21
2018-03-03T06:27:46.766Z,-9.31
2018-03-03T06:28:53.513Z,-9.34
2018-03-03T06:30:00.108Z,-9.34
2018-03-03T06:31:06.772Z,-9.23
2018-03-03T06:32:13.337Z,-9.18
2018-03-03T06:33:20.037Z,-9.23
2018-03-03T06:34:28.090Z,-9.21
2018-03-03T06:35:35.745Z,-9.12
2018-03-03T06:36:41.964Z,-9.15
2018-03-03T06:37:48.966Z,-9.02
2018-03-03T06:39:10.205Z,-9.09
2018-03-03T06:40:21.518Z,-8.98
2018-03-03T06:41:34.806Z,-8.86
2018-03-03T06:42:41.604Z,-8.88
2018-03-03T06:43:49.505Z,-8.87
2018-03-03T06:45:00.740Z,-8.83
2018-03-03T06:46:07.447Z,-8.77
2018-03-03T06:47:15.869Z,-8.79
2018-03-03T06:48:24.982Z,-8.91
2018-03-03T06:49:30.915Z,-8.84
2018-03-03T06:50:37.274Z,-8.88
2018-03-03T06:51:44.874Z,-8.86
2018-03-03T06:52:52.106Z,-8.79
2018-03-03T06:53:58.429Z,-8.69
2018-03-03T06:55:05.217Z,-8.62
2018-03-03T06:57:13.377Z,-8.70
2018-03-03T06:58:19.119Z,-8.62
2018-03-03T06:59:25.076Z,-8.69
2018-03-03T07:00:30.751Z,-8.59
2018-03-03T07:01:36.050Z,-8.53
2018-03-03T07:02:41.807Z,-8.46
2018-03-03T07:03:47.108Z,-8.42
2018-03-03T07:04:52.674Z,-8.44
2018-03-03T07:06:08.209Z,-8.41
2018-03-03T07:07:13.387Z,-8.37
2018-03-03T07:08:18.863Z,-8.40
2018-03-03T07:09:24.864Z,-8.32
2018-03-03T07:10:30.389Z,-8.22
2018-03-03T07:11:41.382Z,-8.18
2018-03-03T07:12:47.285Z,-8.14
2018-03-03T07:13:52.438Z,-8.11
2018-03-03T07:14:58.146Z,-8.03
2018-03-03T07:16:04.489Z,-8.02
2018-03-03T07:17:10.857Z,-7.79
2018-03-03T07:18:15.917Z,-7.77
2018-03-03T07:19:26.803Z,-7.77
2018-03-03T07:20:32.109Z,-7.60
2018-03-03T07:21:38.189Z,-7.51
2018-03-03T07:22:43.442Z,-7.47
2018-03-03T07:23:48.579Z,-7.47
2018-03-03T07:24:53.467Z,-7.55
2018-03-03T07:25:58.882Z,-7.37
2018-03-03T07:27:03.827Z,-7.25
2018-03-03T07:28:09.525Z,-7.27
2018-03-03T07:29:16.182Z,-7.31
2018-03-03T07:30:23.141Z,-7.30
2018-03-03T07:31:28.431Z,-7.25
2018-03-03T07:32:33.926Z,-7.17
2018-03-03T07:33:39.546Z,-7.09
2018-03-03T07:34:47.819Z,-6.92
2018-03-03T07:35:52.954Z,-6.90
2018-03-03T07:36:58.425Z,-7.05
2018-03-03T07:38:03.517Z,-7.15
2018-03-03T07:39:08.416Z,-7.17
2018-03-03T07:40:13.527Z,-6.97
2018-03-03T07:41:19.226Z,-7.02
2018-03-03T07:42:24.085Z,-7.07
2018-03-03T07:43:29.660Z,-6.92
2018-03-03T07:44:34.560Z,-6.81
2018-03-03T07:45:40.809Z,-6.78
2018-03-03T07:46:46.389Z,-6.77
2018-03-03T07:47:51.371Z,-6.71
2018-03-03T07:48:56.762Z,-6.73
2018-03-03T07:50:02.288Z,-6.71
2018-03-03T07:51:07.608Z,-6.73
2018-03-03T07:52:12.435Z,-6.62
2018-03-03T07:53:18.237Z,-6.46
2018-03-03T07:54:23.229Z,-6.42
2018-03-03T07:55:28.312Z,-6.54
2018-03-03T07:56:42.425Z,-6.56
2018-03-03T07:57:47.624Z,-6.42
2018-03-03T07:58:52.880Z,-6.38
2018-03-03T07:59:57.584Z,-6.45
2018-03-03T08:01:03.850Z,-6.39
2018-03-03T08:02:08.563Z,-6.43
2018-03-03T08:03:13.619Z,-6.50
2018-03-03T08:04:18.851Z,-6.17
2018-03-03T08:05:23.683Z,-5.89
2018-03-03T08:06:28.977Z,-5.88
2018-03-03T08:07:34.315Z,-5.94
2018-03-03T08:08:39.332Z,-5.89
2018-03-03T08:09:44.155Z,-5.87
2018-03-03T08:10:49.243Z,-5.95
2018-03-03T08:11:54.063Z,-5.92
2018-03-03T08:12:59.034Z,-5.91
2018-03-03T08:14:03.858Z,-5.83
2018-03-03T08:15:09.043Z,-5.90
2018-03-03T08:16:14.632Z,-5.98
2018-03-03T08:17:19.311Z,-5.95
2018-03-03T08:18:24.192Z,-5.64
2018-03-03T08:19:29.190Z,-5.67
2018-03-03T08:20:34.015Z,-5.66
2018-03-03T08:21:39.171Z,-5.72
2018-03-03T08:22:45.204Z,-5.86
2018-03-03T08:23:50.039Z,-5.75
2018-03-03T08:24:54.844Z,-5.63
2018-03-03T08:25:59.854Z,-5.62
2018-03-03T08:27:05.014Z,-5.52
2018-03-03T08:28:09.979Z,-5.47
2018-03-03T08:29:14.718Z,-5.27
2018-03-03T08:30:20.127Z,-5.36
2018-03-03T08:31:25.041Z,-5.31
2018-03-03T08:32:30.235Z,-5.22
2018-03-03T08:33:35.371Z,-5.04
2018-03-03T08:34:41.064Z,-5.04
2018-03-03T08:35:45.869Z,-5.09
2018-03-03T08:36:51.637Z,-5.01
2018-03-03T08:37:56.470Z,-4.98
2018-03-03T08:39:02.207Z,-5.05
2018-03-03T08:40:07.074Z,-5.00
2018-03-03T08:41:11.973Z,-4.84
2018-03-03T08:42:16.710Z,-4.52
2018-03-03T08:43:21.496Z,-4.39
2018-03-03T08:44:26.367Z,-4.40
2018-03-03T08:45:32.448Z,-4.38
2018-03-03T08:46:37.348Z,-4.35
2018-03-03T08:47:42.893Z,-4.35
2018-03-03T08:48:47.761Z,-4.33
2018-03-03T08:49:52.464Z,-4.32
2018-03-03T08:50:57.109Z,-4.22
2018-03-03T08:52:01.917Z,-4.27
2018-03-03T08:53:06.622Z,-4.35
2018-03-03T08:54:11.324Z,-4.31
2018-03-03T08:55:16.149Z,-4.24
2018-03-03T08:56:20.862Z,-4.20
2018-03-03T08:57:25.685Z,-4.22
2018-03-03T08:58:30.658Z,-4.13
2018-03-03T08:59:35.284Z,-4.19
2018-03-03T09:00:40.403Z,-4.20
2018-03-03T09:01:45.870Z,-4.12
2018-03-03T09:02:50.658Z,-4.13
2018-03-03T09:03:55.463Z,-4.29
2018-03-03T09:05:00.210Z,-4.42
2018-03-03T09:06:05.731Z,-4.29
2018-03-03T09:07:10.560Z,-4.12
2018-03-03T09:08:15.399Z,-3.89
2018-03-03T09:09:20.441Z,-3.76
2018-03-03T09:10:25.188Z,-3.53
2018-03-03T09:11:29.934Z,-3.36
2018-03-03T09:12:36.136Z,-3.14
2018-03-03T09:13:41.217Z,-3.05
2018-03-03T09:14:46.642Z,-3.01
2018-03-03T09:15:52.351Z,-3.03
2018-03-03T09:16:57.040Z,-3.26
2018-03-03T09:18:01.924Z,-3.26
2018-03-03T09:19:06.668Z,-3.05
2018-03-03T09:20:11.278Z,-3.08
2018-03-03T09:21:16.091Z,-2.96
2018-03-03T09:22:21.140Z,-2.63
2018-03-03T09:23:25.970Z,-2.46
2018-03-03T09:24:30.867Z,-2.35
2018-03-03T09:25:36.176Z,-2.26
2018-03-03T09:26:41.133Z,-2.26
2018-03-03T09:27:47.576Z,-2.11
2018-03-03T09:28:52.364Z,-2.05
2018-03-03T09:29:57.159Z,-1.99
2018-03-03T09:31:01.809Z,-2.00
2018-03-03T09:32:07.020Z,-2.08
2018-03-03T09:33:11.677Z,-2.26
2018-03-03T09:34:16.893Z,-2.37
2018-03-03T09:35:21.635Z,-2.54
2018-03-03T09:36:26.696Z,-2.47
2018-03-03T09:37:31.657Z,-2.64
2018-03-03T09:38:36.475Z,-2.73
2018-03-03T09:39:41.379Z,-2.62
2018-03-03T09:40:47.472Z,-2.31
2018-03-03T09:41:52.373Z,-2.49
2018-03-03T09:42:57.831Z,-2.67
2018-03-03T09:44:03.135Z,-2.92
2018-03-03T09:45:07.959Z,-2.91
2018-03-03T09:46:12.982Z,-2.73
2018-03-03T09:47:18.104Z,-2.69
2018-03-03T09:48:23.023Z,-2.62
2018-03-03T09:49:28.019Z,-2.69
2018-03-03T09:50:32.756Z,-2.49
2018-03-03T09:51:37.471Z,-2.28
2018-03-03T09:52:42.302Z,-2.12
2018-03-03T09:53:48.353Z,-2.01
2018-03-03T09:54:53.122Z,-2.05
2018-03-03T09:55:57.920Z,-2.12
2018-03-03T09:57:02.794Z,-1.98
2018-03-03T09:58:07.801Z,-1.97
2018-03-03T09:59:12.719Z,-2.02
2018-03-03T10:00:17.691Z,-1.74
2018-03-03T10:01:22.687Z,-1.68
2018-03-03T10:02:27.751Z,-1.79
2018-03-03T10:03:32.471Z,-2.03
2018-03-03T10:04:37.518Z,-2.19
2018-03-03T10:05:42.571Z,-2.01
2018-03-03T10:06:47.300Z,-1.84
2018-03-03T10:07:52.125Z,-1.67
2018-03-03T10:08:56.804Z,-1.75
2018-03-03T10:10:01.709Z,-1.70
2018-03-03T10:11:06.739Z,-1.48
2018-03-03T10:12:11.508Z,-1.27
2018-03-03T10:13:16.134Z,-1.21
2018-03-03T10:14:21.046Z,-1.14
2018-03-03T10:15:26.379Z,-1.15
2018-03-03T10:16:31.051Z,-1.15
2018-03-03T10:17:35.875Z,-0.98
2018-03-03T10:18:40.778Z,-0.93
2018-03-03T10:19:45.424Z,-0.88
2018-03-03T10:20:50.381Z,-0.85
2018-03-03T10:21:55.300Z,-1.05
2018-03-03T10:23:00.284Z,-1.28
2018-03-03T10:24:05.022Z,-1.27
2018-03-03T10:25:09.836Z,-1.28
2018-03-03T10:26:15.111Z,-1.09
2018-03-03T10:27:19.749Z,-1.03
2018-03-03T10:28:24.401Z,-0.70
2018-03-03T10:29:29.246Z,-0.41
2018-03-03T10:30:34.034Z,-0.56
2018-03-03T10:31:39.801Z,-0.65
2018-03-03T10:32:45.078Z,-0.49
2018-03-03T10:33:49.859Z,-0.36
2018-03-03T10:34:54.861Z,-0.50
2018-03-03T10:35:59.498Z,-0.49
2018-03-03T10:37:04.242Z,-0.75
2018-03-03T10:38:09.804Z,-0.90
2018-03-03T10:39:14.488Z,-0.92
2018-03-03T10:40:19.382Z,-0.91
2018-03-03T10:41:24.518Z,-0.93
2018-03-03T10:42:29.468Z,-1.09
2018-03-03T10:43:34.233Z,-1.06
2018-03-03T10:44:39.020Z,-0.97
2018-03-03T10:45:44.918Z,-0.87
2018-03-03T10:46:49.693Z,-0.70
2018-03-03T10:47:54.917Z,-0.57
2018-03-03T10:48:59.734Z,-0.58
2018-03-03T10:50:04.557Z,-0.46
2018-03-03T10:51:09.344Z,-0.52
2018-03-03T10:52:14.222Z,-0.38
2018-03-03T10:53:18.954Z,-0.36
2018-03-03T10:54:23.651Z,-0.43
2018-03-03T10:55:28.727Z,-0.39
2018-03-03T10:56:33.604Z,-0.31
2018-03-03T10:57:38.547Z,-0.63
2018-03-03T10:58:43.446Z,-0.73
2018-03-03T10:59:48.706Z,-0.68
2018-03-03T11:00:53.434Z,-0.52
2018-03-03T11:01:58.217Z,-0.19
2018-03-03T11:03:02.893Z,0.33
2018-03-03T11:04:07.744Z,0.44
2018-03-03T11:05:14.360Z,0.54
2018-03-03T11:06:19.418Z,0.70
2018-03-03T11:07:24.126Z,0.61
2018-03-03T11:08:29.151Z,0.16
2018-03-03T11:09:33.903Z,0.22
2018-03-03T11:10:38.780Z,0.22
2018-03-03T11:11:44.733Z,0.37
2018-03-03T11:12:50.667Z,0.70
2018-03-03T11:13:55.426Z,0.77
2018-03-03T11:15:00.203Z,0.61
2018-03-03T11:16:04.969Z,0.90
2018-03-03T11:17:09.703Z,1.22
2018-03-03T11:18:14.323Z,0.89
2018-03-03T11:19:19.068Z,0.75
2018-03-03T11:20:24.015Z,0.77
2018-03-03T11:21:28.863Z,0.57
2018-03-03T11:22:33.766Z,0.88
2018-03-03T11:23:38.500Z,0.94
2018-03-03T11:24:43.444Z,0.95
2018-03-03T11:25:50.134Z,1.17
2018-03-03T11:26:54.946Z,1.31
2018-03-03T11:27:59.750Z,1.42
2018-03-03T11:29:04.610Z,1.68
2018-03-03T11:30:09.829Z,1.74
2018-03-03T11:31:14.762Z,1.29
2018-03-03T11:32:19.848Z,1.20
2018-03-03T11:33:24.694Z,1.56
2018-03-03T11:34:29.644Z,1.08
2018-03-03T11:35:34.520Z,1.17
2018-03-03T11:36:40.267Z,1.09
2018-03-03T11:37:45.048Z,0.92
2018-03-03T11:38:51.084Z,0.74
2018-03-03T11:39:55.868Z,1.00
2018-03-03T11:41:00.602Z,1.22
2018-03-03T11:42:05.258Z,1.39
2018-03-03T11:43:11.036Z,1.70
2018-03-03T11:44:15.819Z,1.64
2018-03-03T11:45:20.982Z,1.49
2018-03-03T11:46:25.854Z,1.90
2018-03-03T11:47:30.638Z,1.81
2018-03-03T11:48:35.620Z,1.62
2018-03-03T11:49:40.409Z,1.70
2018-03-03T11:50:45.447Z,1.50
2018-03-03T11:51:50.093Z,1.06
2018-03-03T11:52:54.884Z,1.24
2018-03-03T11:53:59.701Z,1.26
2018-03-03T11:55:04.561Z,1.02
2018-03-03T11:56:09.302Z,1.11
2018-03-03T11:57:14.259Z,1.16
2018-03-03T11:58:19.632Z,1.34
2018-03-03T11:59:24.358Z,1.21
2018-03-03T12:00:29.820Z,1.94
2018-03-03T12:01:34.530Z,2.65
2018-03-03T12:02:39.318Z,2.80
2018-03-03T12:03:44.341Z,2.77
2018-03-03T12:04:50.042Z,3.34
2018-03-03T12:05:54.797Z,3.56
2018-03-03T12:06:59.550Z,3.97
2018-03-03T12:08:04.292Z,3.84
2018-03-03T12:09:09.081Z,3.53
2018-03-03T12:10:14.721Z,3.47
2018-03-03T12:11:20.488Z,2.50
2018-03-03T12:12:25.237Z,1.88
2018-03-03T12:13:30.118Z,1.86
2018-03-03T12:14:35.047Z,2.45
2018-03-03T12:15:40.599Z,3.08
2018-03-03T12:16:45.352Z,3.33
2018-03-03T12:17:50.616Z,2.94
2018-03-03T12:18:55.427Z,2.44
2018-03-03T12:20:00.222Z,2.52
2018-03-03T12:21:05.332Z,2.42
2018-03-03T12:22:10.091Z,2.60
2018-03-03T12:23:15.825Z,2.18
2018-03-03T12:24:20.580Z,2.02
2018-03-03T12:25:25.505Z,2.32
2018-03-03T12:26:30.614Z,2.65
2018-03-03T12:27:35.708Z,3.28
2018-03-03T12:28:40.748Z,2.94
2018-03-03T12:29:45.382Z,2.59
2018-03-03T12:30:50.246Z,3.02
2018-03-03T12:31:55.020Z,2.74
2018-03-03T12:32:59.827Z,2.71
2018-03-03T12:34:04.668Z,2.54
2018-03-03T12:35:09.341Z,2.31
2018-03-03T12:36:14.131Z,2.33
2018-03-03T12:37:19.022Z,2.41
2018-03-03T12:38:23.744Z,2.49
2018-03-03T12:39:29.023Z,3.15
2018-03-03T12:40:33.906Z,3.63
2018-03-03T12:41:38.721Z,3.56
2018-03-03T12:42:44.029Z,3.33
2018-03-03T12:43:48.902Z,2.40
2018-03-03T12:44:53.613Z,2.26
2018-03-03T12:46:00.250Z,2.45
2018-03-03T12:47:04.982Z,2.33
2018-03-03T12:48:09.735Z,2.76
2018-03-03T12:49:14.362Z,3.00
2018-03-03T12:50:19.035Z,2.63
2018-03-03T12:51:23.808Z,3.52
2018-03-03T12:52:29.095Z,3.45
2018-03-03T12:53:33.980Z,3.79
2018-03-03T12:54:38.691Z,4.08
2018-03-03T12:55:43.332Z,3.92
2018-03-03T12:56:48.201Z,3.02
2018-03-03T12:57:52.810Z,2.58
2018-03-03T12:58:57.970Z,2.72
2018-03-03T13:00:05.000Z,2.70
2018-03-03T13:01:09.991Z,3.14
2018-03-03T13:02:15.302Z,3.50
2018-03-03T13:03:21.137Z,3.17
2018-03-03T13:04:25.839Z,2.74
2018-03-03T13:05:30.842Z,2.19
2018-03-03T13:06:35.588Z,2.22
2018-03-03T13:07:40.285Z,2.08
2018-03-03T13:08:44.994Z,2.85
2018-03-03T13:09:49.781Z,3.57
2018-03-03T13:10:54.671Z,4.09
2018-03-03T13:11:59.387Z,3.59
2018-03-03T13:13:04.159Z,3.01
2018-03-03T13:14:08.948Z,2.47
2018-03-03T13:15:16.079Z,2.16
2018-03-03T13:16:20.850Z,2.16
2018-03-03T13:17:25.654Z,2.26
2018-03-03T13:18:30.606Z,2.55
2018-03-03T13:19:35.371Z,2.29
2018-03-03T13:20:40.063Z,2.41
2018-03-03T13:21:45.139Z,2.19
2018-03-03T13:22:50.492Z,2.33
2018-03-03T13:23:55.341Z,2.26
2018-03-03T13:25:00.147Z,2.93
2018-03-03T13:26:04.920Z,2.75
2018-03-03T13:27:10.624Z,2.05
2018-03-03T13:28:16.790Z,2.03
2018-03-03T13:29:22.491Z,2.16
2018-03-03T13:32:04.808Z,2.36
2018-03-03T13:33:11.601Z,3.72
2018-03-03T13:34:19.830Z,4.22
2018-03-03T13:35:27.150Z,4.22
2018-03-03T13:36:32.127Z,4.81
2018-03-03T13:37:39.911Z,4.24
2018-03-03T13:38:48.313Z,3.93
2018-03-03T13:39:53.767Z,4.35
2018-03-03T13:41:00.049Z,4.46
2018-03-03T13:42:04.908Z,3.65
2018-03-03T13:43:09.844Z,3.44
2018-03-03T13:44:14.496Z,3.57
2018-03-03T13:45:20.619Z,3.47
2018-03-03T13:46:26.482Z,3.65
2018-03-03T13:47:35.459Z,4.30
2018-03-03T13:48:40.253Z,4.03
2018-03-03T13:49:45.072Z,3.23
2018-03-03T13:50:50.737Z,2.80
2018-03-03T13:51:55.761Z,3.20
2018-03-03T13:53:00.525Z,3.96
2018-03-03T13:54:05.880Z,4.45
2018-03-03T13:55:10.647Z,5.17
2018-03-03T13:56:15.385Z,4.13
2018-03-03T13:57:22.106Z,2.63
2018-03-03T13:58:27.300Z,2.76
2018-03-03T13:59:32.158Z,3.49
2018-03-03T14:00:38.531Z,3.78
2018-03-03T14:01:43.269Z,4.98
2018-03-03T14:04:02.693Z,5.15
2018-03-03T14:05:07.558Z,4.65
2018-03-03T14:06:12.403Z,3.11
2018-03-03T14:07:17.983Z,3.27
2018-03-03T14:08:23.122Z,3.31
2018-03-03T14:09:27.837Z,3.23
2018-03-03T14:10:32.827Z,3.30
2018-03-03T14:11:37.769Z,4.08
2018-03-03T14:12:42.486Z,4.53
2018-03-03T14:13:48.052Z,4.07
2018-03-03T14:14:53.119Z,3.14
2018-03-03T14:15:58.505Z,3.82
2018-03-03T14:17:03.593Z,3.48
2018-03-03T14:18:08.521Z,3.08